Time;durP1;ratioP1;P1;durP2;ratioP2;P2;SDS_P1;SDS_P2;PMS_P1;PMS_P2;Temp;Humidity;BMP_temperature;BMP_pressure;BME280_temperature;BME280_humidity;BME280_pressure;Samples;Min_cycle;Max_cycle;Signal;HPM_P1;HPM_P2
2022/08/30 00:01:01;;;;;;;11.05;9.90;;;;;;;13.24;100.00;101073.06;4962875;28;20076;-74
2022/08/30 00:02:00;;;;;;;12.40;9.57;;;;;;;13.15;100.00;101072.25;4963653;28;20097;-74
2022/08/30 00:04:25;;;;;;;12.50;10.18;;;;;;;13.15;100.00;101068.69;4961270;28;20039;-74
2022/08/30 00:06:51;;;;;;;10.52;9.38;;;;;;;13.15;100.00;101073.97;4960087;28;20455;-74
2022/08/30 00:09:16;;;;;;;11.50;9.63;;;;;;;13.14;100.00;101077.53;4964492;28;20121;-74
2022/08/30 00:11:41;;;;;;;12.65;11.45;;;;;;;13.16;100.00;101075.75;4963617;28;20446;-74
2022/08/30 00:14:07;;;;;;;12.25;11.02;;;;;;;13.16;100.00;101076.63;4965642;28;20465;-74
2022/08/30 00:16:32;;;;;;;11.75;10.55;;;;;;;13.16;100.00;101071.34;4962720;28;20115;-75
2022/08/30 00:18:57;;;;;;;12.48;10.77;;;;;;;13.20;100.00;101077.47;4962772;28;20273;-74
2022/08/30 00:21:24;;;;;;;14.93;10.55;;;;;;;13.16;100.00;101071.34;4965346;28;20035;-74
2022/08/30 00:23:49;;;;;;;13.18;10.90;;;;;;;13.13;100.00;101071.38;4962604;28;20039;-74
2022/08/30 00:26:15;;;;;;;12.88;9.75;;;;;;;13.11;100.00;101077.56;4947334;28;20166;-74
2022/08/30 00:28:40;;;;;;;11.75;10.65;;;;;;;13.01;100.00;101074.09;4963792;28;20034;-74
2022/08/30 00:31:06;;;;;;;13.10;10.55;;;;;;;12.97;100.00;101074.13;4963150;28;20047;-74
2022/08/30 00:33:31;;;;;;;9.38;8.48;;;;;;;12.85;100.00;101075.09;4964614;28;20046;-74
2022/08/30 00:35:57;;;;;;;9.68;8.65;;;;;;;12.83;100.00;101082.19;4961912;28;20038;-74
2022/08/30 00:38:23;;;;;;;11.00;9.90;;;;;;;12.77;100.00;101087.53;4962252;28;20067;-74
2022/08/30 00:40:49;;;;;;;13.98;11.25;;;;;;;12.66;100.00;101091.13;4964531;28;20034;-74
2022/08/30 00:43:22;;;;;;;12.73;11.35;;;;;;;12.66;100.00;101090.25;4963284;28;20031;-74
2022/08/30 00:45:49;;;;;;;10.45;9.43;;;;;;;12.70;100.00;101087.53;4961948;28;20062;-74
2022/08/30 00:48:15;;;;;;;11.93;10.73;;;;;;;12.59;100.00;101094.69;4958265;28;20391;-74
2022/08/30 00:50:49;;;;;;;10.35;8.50;;;;;;;12.56;100.00;101083.25;4964255;28;20093;-74
2022/08/30 00:53:23;;;;;;;13.90;11.38;;;;;;;12.47;100.00;101094.72;4964078;28;20039;-74
2022/08/30 00:55:49;;;;;;;12.05;10.73;;;;;;;12.49;100.00;101092.97;4958878;28;20043;-74
2022/08/30 00:58:20;;;;;;;15.18;12.70;;;;;;;12.53;100.00;101094.72;4946154;28;20093;-74
2022/08/30 01:00:48;;;;;;;15.20;13.20;;;;;;;12.61;100.00;101082.31;4962114;28;20101;-75
2022/08/30 01:03:14;;;;;;;19.13;13.20;;;;;;;12.70;100.00;101084.91;4960380;28;20482;-74
2022/08/30 01:05:40;;;;;;;13.85;12.13;;;;;;;12.72;100.00;101079.59;4961551;28;20047;-74
2022/08/30 01:08:05;;;;;;;15.60;11.55;;;;;;;12.73;100.00;101081.34;4946723;28;20467;-74
2022/08/30 01:10:34;;;;;;;15.00;11.07;;;;;;;12.78;100.00;101089.28;4961094;28;20066;-74
2022/08/30 01:12:59;;;;;;;13.45;10.27;;;;;;;12.71;100.00;101091.97;4937980;28;20039;-74
2022/08/30 01:15:25;;;;;;;9.93;8.93;;;;;;;12.65;100.00;101089.38;4961734;28;20069;-74
2022/08/30 01:17:50;;;;;;;11.32;8.85;;;;;;;12.65;100.00;101084.06;4964639;28;20035;-74
2022/08/30 01:20:22;;;;;;;15.05;11.32;;;;;;;12.70;100.00;101081.38;4961705;28;20042;-74
2022/08/30 01:22:48;;;;;;;15.13;13.60;;;;;;;12.77;100.00;101082.22;4962594;28;20397;-74
2022/08/30 01:25:19;;;;;;;16.55;13.43;;;;;;;12.77;100.00;101076.94;4963644;28;20034;-74
2022/08/30 01:27:50;;;;;;;17.05;13.57;;;;;;;12.79;100.00;101075.16;4957713;28;20639;-74
2022/08/30 01:30:16;;;;;;;20.52;13.38;;;;;;;12.81;100.00;101076.00;4963169;28;20074;-74
2022/08/30 01:32:45;;;;;;;17.15;14.43;;;;;;;12.80;100.00;101084.84;4962946;28;20435;-74
2022/08/30 01:35:14;;;;;;;15.48;11.57;;;;;;;12.74;100.00;101079.59;4961194;28;20034;-74
2022/08/30 01:37:39;;;;;;;16.98;12.60;;;;;;;12.75;100.00;101089.31;4958098;28;20046;-74
2022/08/30 01:40:07;;;;;;;11.98;10.77;;;;;;;12.77;100.00;101084.88;4963450;28;20042;-74
2022/08/30 01:42:33;;;;;;;15.85;11.70;;;;;;;12.76;100.00;101080.44;4962568;28;20502;-74
2022/08/30 01:44:58;;;;;;;12.80;10.30;;;;;;;12.71;100.00;101078.72;4960783;28;20054;-74
2022/08/30 01:47:23;;;;;;;13.75;11.50;;;;;;;12.62;100.00;101081.41;4961436;28;20039;-74
2022/08/30 01:49:49;;;;;;;14.55;13.02;;;;;;;12.57;100.00;101080.56;4964291;28;20045;-74
2022/08/30 01:52:15;;;;;;;13.38;11.98;;;;;;;12.57;100.00;101084.97;4961035;28;20387;-74
2022/08/30 01:54:41;;;;;;;13.52;12.13;;;;;;;12.57;100.00;101088.50;4963226;28;20505;-74
2022/08/30 01:57:10;;;;;;;15.30;11.45;;;;;;;12.53;100.00;101093.84;4962707;28;20494;-74
2022/08/30 01:59:38;;;;;;;15.18;10.40;;;;;;;12.52;100.00;101092.94;4961533;28;20039;-74
2022/08/30 02:02:03;;;;;;;12.25;11.05;;;;;;;12.53;100.00;101094.72;4964091;28;20138;-74
2022/08/30 02:04:29;;;;;;;11.93;9.40;;;;;;;12.50;100.00;101090.31;4960355;28;20110;-74
2022/08/30 02:06:54;;;;;;;14.13;11.05;;;;;;;12.47;100.00;101090.34;4961932;28;20116;-74
2022/08/30 02:09:20;;;;;;;13.85;10.80;;;;;;;12.46;100.00;101088.56;4962622;28;20061;-75
2022/08/30 02:11:46;;;;;;;16.80;13.20;;;;;;;12.47;100.00;101081.50;4961681;28;20050;-74
2022/08/30 02:14:12;;;;;;;14.45;12.45;;;;;;;12.49;100.00;101082.38;4962118;28;20074;-74
2022/08/30 02:16:38;;;;;;;13.85;12.45;;;;;;;12.41;100.00;101082.41;4960897;28;20050;-74
2022/08/30 02:19:04;;;;;;;12.63;10.30;;;;;;;12.34;100.00;101082.44;4963722;28;20046;-74
2022/08/30 02:21:29;;;;;;;10.93;9.23;;;;;;;12.21;100.00;101079.88;4963623;28;20039;-74
2022/08/30 02:23:54;;;;;;;10.85;9.32;;;;;;;12.17;100.00;101079.88;4943391;28;20046;-74
2022/08/30 02:26:21;;;;;;;10.80;9.77;;;;;;;12.17;100.00;101088.69;4962908;28;20125;-74
2022/08/30 02:28:47;;;;;;;11.65;10.43;;;;;;;12.12;100.00;101086.97;4959122;28;20486;-74
2022/08/30 02:31:12;;;;;;;14.90;13.25;;;;;;;12.12;100.00;101086.97;4960537;28;20434;-74
2022/08/30 02:33:38;;;;;;;14.70;11.80;;;;;;;12.19;100.00;101091.34;4966123;28;20049;-74
2022/08/30 02:36:05;;;;;;;16.42;12.32;;;;;;;12.24;100.00;101084.28;4963615;28;20143;-74
2022/08/30 02:38:31;;;;;;;13.88;12.20;;;;;;;12.24;100.00;101093.09;4948706;28;20043;-74
2022/08/30 02:40:57;;;;;;;12.88;11.50;;;;;;;12.26;100.00;101088.69;4965128;28;20031;-74
2022/08/30 02:43:22;;;;;;;15.32;11.40;;;;;;;12.24;100.00;101085.16;4966794;28;20043;-74
2022/08/30 02:45:48;;;;;;;13.32;10.07;;;;;;;12.20;100.00;101080.75;4946616;28;20039;-74
2022/08/30 02:48:14;;;;;;;10.23;8.95;;;;;;;12.10;100.00;101089.59;4966844;28;20042;-74
2022/08/30 02:50:45;;;;;;;10.40;9.18;;;;;;;11.97;100.00;101088.78;4959857;28;20127;-73
2022/08/30 02:53:11;;;;;;;149.88;11.85;;;;;;;11.92;100.00;101079.97;4964382;28;20561;-74
2022/08/30 02:55:36;;;;;;;99.85;10.43;;;;;;;11.84;100.00;101076.41;4949633;28;20057;-74
2022/08/30 02:58:02;;;;;;;9.93;8.93;;;;;;;11.81;100.00;101072.00;4963795;28;20118;-74
2022/08/30 03:00:27;;;;;;;12.13;10.93;;;;;;;11.73;100.00;101072.94;4966669;28;20054;-74
2022/08/30 03:02:53;;;;;;;9.10;8.18;;;;;;;11.71;100.00;101074.69;4964466;28;20035;-73
2022/08/30 03:05:18;;;;;;;9.55;8.63;;;;;;;11.75;100.00;101081.75;4963550;28;20416;-74
2022/08/30 03:07:46;;;;;;;10.48;9.48;;;;;;;11.83;100.00;101083.47;4958508;28;20066;-74
2022/08/30 03:10:12;;;;;;;12.90;11.43;;;;;;;11.89;100.00;101081.72;4961708;28;20057;-74
2022/08/30 03:12:37;;;;;;;16.00;11.70;;;;;;;11.81;100.00;101087.88;4966521;28;20043;-74
2022/08/30 03:15:07;;;;;;;12.20;10.80;;;;;;;11.84;100.00;101085.25;4932217;28;20050;-74
2022/08/30 03:17:33;;;;;;;9.65;8.65;;;;;;;11.82;100.00;101084.38;4964984;28;20101;-74
2022/08/30 03:20:00;;;;;;;9.52;8.60;;;;;;;11.80;100.00;101090.56;4965555;28;20050;-74
2022/08/30 03:22:27;;;;;;;9.77;8.77;;;;;;;11.78;100.00;101085.25;4946022;29;20191;-74
2022/08/30 03:24:52;;;;;;;12.40;9.30;;;;;;;11.72;100.00;101085.28;4959725;28;20046;-73
2022/08/30 03:27:18;;;;;;;10.00;9.00;;;;;;;11.69;100.00;101082.66;4964275;28;20050;-74
2022/08/30 03:29:43;;;;;;;9.77;8.68;;;;;;;11.70;100.00;101084.38;4965212;28;20049;-74
2022/08/30 03:32:08;;;;;;;167.63;20.42;;;;;;;11.71;100.00;101083.53;4964814;28;20053;-74
2022/08/30 03:34:34;;;;;;;10.32;9.15;;;;;;;11.72;100.00;101081.75;4961580;28;20074;-74
2022/08/30 03:37:00;;;;;;;10.65;9.60;;;;;;;11.70;100.00;101075.59;4964452;28;20039;-74
2022/08/30 03:39:26;;;;;;;12.38;9.07;;;;;;;11.65;100.00;101083.50;4966118;28;20472;-74
2022/08/30 03:41:52;;;;;;;8.93;8.13;;;;;;;11.69;100.00;101087.06;4960624;28;20035;-74
2022/08/30 03:44:19;;;;;;;9.40;7.90;;;;;;;11.67;100.00;101088.81;4963839;28;20477;-75
2022/08/30 03:46:44;;;;;;;10.13;9.13;;;;;;;11.68;100.00;101085.28;4964894;28;20039;-74
2022/08/30 03:49:10;;;;;;;9.25;8.35;;;;;;;11.68;100.00;101086.16;4963503;28;20094;-74
2022/08/30 03:51:35;;;;;;;12.80;10.00;;;;;;;11.67;100.00;101088.81;4965636;28;20431;-74
2022/08/30 03:54:01;;;;;;;9.20;8.07;;;;;;;11.61;100.00;101085.28;4962675;28;20035;-74
2022/08/30 03:56:27;;;;;;;9.60;8.70;;;;;;;11.58;100.00;101076.47;4965410;28;20100;-74
2022/08/30 03:58:52;;;;;;;8.95;8.05;;;;;;;11.58;100.00;101087.03;4963894;28;20497;-74
2022/08/30 04:01:18;;;;;;;8.75;7.85;;;;;;;11.57;100.00;101094.09;4964719;28;20537;-74
2022/08/30 04:03:43;;;;;;;10.82;8.27;;;;;;;11.54;100.00;101094.09;4963801;28;20058;-73
2022/08/30 04:06:09;;;;;;;8.90;7.95;;;;;;;11.50;100.00;101091.47;4962142;28;20410;-74
2022/08/30 04:08:34;;;;;;;9.57;8.57;;;;;;;11.48;100.00;101101.19;4962347;28;20433;-73
2022/08/30 04:11:01;;;;;;;9.63;8.68;;;;;;;11.48;100.00;101093.25;4965313;28;20101;-74
2022/08/30 04:13:27;;;;;;;12.65;11.32;;;;;;;11.52;100.00;101093.22;4960624;28;20057;-74
2022/08/30 04:15:53;;;;;;;12.48;9.70;;;;;;;11.56;100.00;101092.34;4958684;28;20038;-74
2022/08/30 04:18:18;;;;;;;9.50;8.60;;;;;;;11.59;100.00;101094.13;4964437;28;20046;-74
2022/08/30 04:20:43;;;;;;;9.18;8.27;;;;;;;11.56;100.00;101107.34;4960899;28;20048;-74
2022/08/30 04:23:11;;;;;;;9.48;8.55;;;;;;;11.50;100.00;101100.31;4954333;28;20114;-74
2022/08/30 04:25:37;;;;;;;11.68;7.90;;;;;;;11.48;100.00;101104.69;4962838;28;20563;-74
2022/08/30 04:28:03;;;;;;;9.13;8.18;;;;;;;11.53;100.00;101100.28;4963124;28;20118;-76
2022/08/30 04:30:29;;;;;;;9.82;8.77;;;;;;;11.60;100.00;101106.44;4963417;28;20046;-76
2022/08/30 04:32:54;;;;;;;12.30;8.88;;;;;;;11.61;100.00;101106.44;4963758;28;20043;-76
2022/08/30 04:35:20;;;;;;;10.07;8.02;;;;;;;11.59;100.00;101123.19;4963442;28;20046;-76
2022/08/30 04:37:45;;;;;;;15.13;8.93;;;;;;;11.63;100.00;101112.63;4963601;28;20035;-77
2022/08/30 04:40:12;;;;;;;14.35;9.05;;;;;;;11.69;100.00;101119.66;4963730;28;20035;-76
2022/08/30 04:42:38;;;;;;;9.32;8.40;;;;;;;11.73;100.00;101113.47;4955723;28;20043;-76
2022/08/30 04:45:07;;;;;;;9.18;8.27;;;;;;;11.80;100.00;101128.44;4934481;28;20450;-76
2022/08/30 04:47:33;;;;;;;8.35;7.55;;;;;;;11.90;100.00;101121.41;4938733;28;20077;-76
2022/08/30 04:49:58;;;;;;;8.15;7.38;;;;;;;11.94;100.00;101117.88;4951973;28;20042;-76
2022/08/30 04:52:24;;;;;;;9.68;8.68;;;;;;;12.04;100.00;101126.66;4959868;28;20031;-76
2022/08/30 04:54:54;;;;;;;9.00;8.10;;;;;;;12.14;100.00;101122.25;4956168;28;20512;-74
2022/08/30 04:57:20;;;;;;;8.48;7.68;;;;;;;12.27;100.00;101124.81;4956204;28;20074;-73
2022/08/30 04:59:45;;;;;;;8.60;7.88;;;;;;;12.42;100.00;101125.66;4956487;28;20528;-74
2022/08/30 05:02:10;;;;;;;14.13;12.52;;;;;;;12.56;100.00;101121.19;4957345;28;20437;-73
2022/08/30 05:04:36;;;;;;;10.45;8.85;;;;;;;12.67;100.00;101132.59;4958649;28;20477;-74
2022/08/30 05:07:01;;;;;;;8.82;7.93;;;;;;;12.81;100.00;101129.88;4961465;28;20557;-76
2022/08/30 05:09:26;;;;;;;8.07;7.30;;;;;;;12.94;100.00;101136.88;4947553;28;20035;-76
2022/08/30 05:11:52;;;;;;;7.95;7.22;;;;;;;12.97;99.85;101143.91;4962561;28;20035;-76
2022/08/30 05:14:17;;;;;;;8.63;7.82;;;;;;;12.95;99.43;101143.03;4964139;28;20034;-76
2022/08/30 05:16:43;;;;;;;9.02;8.13;;;;;;;12.93;99.66;101136.88;4944145;29;20094;-76
2022/08/30 05:19:08;;;;;;;7.35;6.75;;;;;;;12.99;99.50;101136.81;4963135;28;20671;-76
2022/08/30 05:21:33;;;;;;;8.23;7.40;;;;;;;13.01;98.87;101137.69;4961389;28;20530;-76
2022/08/30 05:23:59;;;;;;;9.65;8.25;;;;;;;13.08;99.19;101136.78;4963536;28;20540;-76
2022/08/30 05:26:30;;;;;;;8.13;7.32;;;;;;;13.15;98.60;101143.78;4962865;28;20430;-76
2022/08/30 05:28:56;;;;;;;8.30;7.60;;;;;;;13.17;98.55;101146.41;4959288;28;20119;-76
2022/08/30 05:31:28;;;;;;;9.30;8.40;;;;;;;13.28;98.47;101149.03;4964136;28;20117;-76
2022/08/30 05:33:54;;;;;;;9.30;8.40;;;;;;;13.42;98.36;101143.63;4962189;28;20031;-76
2022/08/30 05:36:22;;;;;;;9.63;8.82;;;;;;;13.58;98.44;101140.81;4943414;28;20057;-76
2022/08/30 05:38:48;;;;;;;9.73;8.85;;;;;;;13.76;97.39;101144.22;4963745;28;20073;-76
2022/08/30 05:41:14;;;;;;;9.63;8.68;;;;;;;13.92;97.15;101148.47;4960870;28;20039;-76
2022/08/30 05:43:39;;;;;;;9.48;8.63;;;;;;;13.99;96.47;101150.19;4946186;28;20473;-76
2022/08/30 05:46:10;;;;;;;9.45;8.50;;;;;;;14.10;96.42;101147.41;4944468;28;20049;-76
2022/08/30 05:48:36;;;;;;;10.52;9.63;;;;;;;14.15;96.30;101150.88;4962106;28;20046;-76
2022/08/30 05:51:03;;;;;;;10.35;9.45;;;;;;;14.26;96.54;101153.41;4954931;28;20039;-76
2022/08/30 05:53:28;;;;;;;9.98;9.07;;;;;;;14.34;95.89;101156.88;4959145;28;20089;-76
2022/08/30 05:55:53;;;;;;;10.10;9.13;;;;;;;14.37;97.02;101156.81;5044797;23;20129;-75
2022/08/30 05:58:19;;;;;;;10.10;9.10;;;;;;;14.54;97.35;101161.06;4992880;28;20038;-76
2022/08/30 06:00:44;;;;;;;11.48;10.25;;;;;;;14.74;96.72;101163.50;4988479;28;20041;-75
2022/08/30 06:03:11;;;;;;;11.50;9.82;;;;;;;14.89;95.85;101157.97;4989667;28;20026;-76
2022/08/30 06:05:37;;;;;;;12.35;11.05;;;;;;;15.02;95.09;101158.69;4992614;28;20038;-76
2022/08/30 06:08:02;;;;;;;12.20;11.00;;;;;;;15.14;94.60;101155.81;4995558;28;20380;-76
2022/08/30 06:10:28;;;;;;;19.02;13.95;;;;;;;15.22;94.79;101169.00;4999259;28;20042;-76
2022/08/30 06:12:53;;;;;;;18.10;11.77;;;;;;;15.33;94.04;101165.28;4997333;28;20038;-76
2022/08/30 06:15:19;;;;;;;12.05;10.85;;;;;;;15.38;93.13;101170.53;4995120;28;20053;-75
2022/08/30 06:17:44;;;;;;;13.13;11.80;;;;;;;15.48;93.25;101155.28;4993219;28;20045;-76
2022/08/30 06:20:10;;;;;;;12.45;11.07;;;;;;;15.50;93.16;101158.81;4995019;28;20030;-76
2022/08/30 06:22:37;;;;;;;18.48;13.13;;;;;;;15.45;93.30;101161.53;4990996;28;20030;-76
2022/08/30 06:25:03;;;;;;;14.13;12.57;;;;;;;15.40;93.47;101157.19;4989042;28;20092;-76
2022/08/30 06:27:30;;;;;;;19.70;14.05;;;;;;;15.52;93.39;101157.00;5001178;28;20676;-76
2022/08/30 06:29:55;;;;;;;14.68;12.60;;;;;;;15.54;93.65;101158.75;5005909;28;20076;-75
2022/08/30 06:32:21;;;;;;;13.98;12.45;;;;;;;15.61;93.32;101156.84;5000011;28;20038;-76
2022/08/30 06:34:47;;;;;;;18.13;12.57;;;;;;;15.69;92.88;101159.41;4992797;28;20034;-76
2022/08/30 06:37:12;;;;;;;21.40;17.08;;;;;;;15.77;92.31;101147.75;4993327;28;20481;-76
2022/08/30 06:39:38;;;;;;;27.98;17.13;;;;;;;15.88;92.61;101149.34;4994598;28;20049;-76
2022/08/30 06:42:03;;;;;;;19.10;15.82;;;;;;;15.98;92.54;101148.22;4994496;28;20054;-76
2022/08/30 06:44:31;;;;;;;16.50;13.45;;;;;;;16.04;92.47;101150.81;4993480;28;20548;-76
2022/08/30 06:46:57;;;;;;;20.42;15.20;;;;;;;16.14;92.27;101151.50;4991133;28;20165;-76
2022/08/30 06:49:22;;;;;;;23.15;17.80;;;;;;;16.25;91.51;101149.50;4992701;28;20073;-76
2022/08/30 06:51:47;;;;;;;17.40;13.07;;;;;;;16.28;90.44;101149.44;4994442;28;20125;-76
2022/08/30 06:54:13;;;;;;;18.63;12.23;;;;;;;16.18;91.27;101154.06;4994485;28;20076;-76
2022/08/30 06:56:39;;;;;;;16.23;13.02;;;;;;;16.37;91.06;101164.34;4994574;28;20161;-76
2022/08/30 06:59:05;;;;;;;15.13;13.35;;;;;;;16.50;90.58;101160.53;4994091;28;20042;-76
2022/08/30 07:01:30;;;;;;;14.32;12.85;;;;;;;16.63;89.99;101162.03;4994354;28;20030;-76
2022/08/30 07:03:57;;;;;;;16.88;13.75;;;;;;;16.73;89.27;101154.72;4992998;28;20034;-76
2022/08/30 07:06:23;;;;;;;16.48;14.85;;;;;;;16.83;88.50;101155.44;4994434;28;20121;-76
2022/08/30 07:08:49;;;;;;;14.38;12.98;;;;;;;16.91;87.53;101156.13;4972585;28;20034;-76
2022/08/30 07:11:32;;;;;;;17.70;13.73;;;;;;;17.01;87.14;101164.81;4993689;28;20042;-76
2022/08/30 07:13:57;;;;;;;;;;;;;;;17.03;85.48;101155.00;4988757;28;20489;-75
2022/08/30 07:16:23;;;;;;;15.30;13.80;;;;;;;17.11;86.02;101153.03;4994172;28;19921;-76
2022/08/30 07:18:53;;;;;;;16.05;14.35;;;;;;;17.26;84.98;101157.09;4993949;28;20046;-76
2022/08/30 07:21:22;;;;;;;17.30;13.73;;;;;;;17.29;83.74;101162.38;4993937;28;20568;-75
2022/08/30 07:23:48;;;;;;;14.82;13.23;;;;;;;17.38;83.30;101159.50;4992628;28;20034;-76
2022/08/30 07:26:15;;;;;;;21.77;18.13;;;;;;;17.56;83.04;101157.28;4994094;28;20504;-76
2022/08/30 07:28:43;;;;;;;14.80;12.18;;;;;;;17.66;82.08;101153.47;4994021;28;20486;-76
2022/08/30 07:31:11;;;;;;;14.38;12.88;;;;;;;17.70;81.56;101160.47;4992214;28;20053;-76
2022/08/30 07:33:36;;;;;;;14.73;13.10;;;;;;;17.79;81.31;101159.34;4993745;28;20044;-76
2022/08/30 07:36:03;;;;;;;17.20;13.80;;;;;;;17.84;80.71;101161.03;4993751;28;20038;-76
2022/08/30 07:38:29;;;;;;;16.90;13.82;;;;;;;17.94;80.29;101167.88;4993723;28;20041;-76
2022/08/30 07:40:57;;;;;;;15.35;13.75;;;;;;;18.06;79.17;101164.00;4992566;28;20038;-76
2022/08/30 07:43:23;;;;;;;18.08;16.25;;;;;;;18.30;79.44;101170.47;4992424;28;20066;-76
2022/08/30 07:45:49;;;;;;;16.25;14.55;;;;;;;18.60;78.68;101173.16;4993403;28;20260;-76
2022/08/30 07:48:14;;;;;;;16.25;14.00;;;;;;;18.76;77.61;101168.31;4993673;28;20041;-76
2022/08/30 07:50:44;;;;;;;16.52;14.75;;;;;;;19.02;76.41;101175.50;4993624;28;20045;-76
2022/08/30 07:53:09;;;;;;;17.23;14.88;;;;;;;19.29;75.82;101167.56;4991585;28;20663;-76
2022/08/30 07:55:34;;;;;;;14.93;12.60;;;;;;;19.35;75.52;101167.34;4993430;28;20037;-76
2022/08/30 07:58:00;;;;;;;14.93;13.52;;;;;;;19.36;75.01;101169.09;4992717;28;20077;-76
2022/08/30 08:00:25;;;;;;;13.98;12.55;;;;;;;19.43;75.24;101174.19;4993478;28;20042;-76
2022/08/30 08:02:50;;;;;;;16.52;13.50;;;;;;;19.50;73.89;101180.25;4993113;28;20041;-76
2022/08/30 08:05:16;;;;;;;13.35;12.05;;;;;;;19.67;73.80;101177.88;4990101;28;20045;-76
2022/08/30 08:07:41;;;;;;;17.52;12.30;;;;;;;19.94;72.95;101180.56;4992952;28;20058;-76
2022/08/30 08:10:07;;;;;;;16.25;14.68;;;;;;;20.21;72.50;101178.72;4990316;28;20061;-76
2022/08/30 08:12:33;;;;;;;15.32;13.85;;;;;;;20.43;71.35;101176.13;4989741;28;20069;-76
2022/08/30 08:14:59;;;;;;;19.70;16.08;;;;;;;20.54;71.32;101171.28;4989031;28;20034;-76
2022/08/30 08:17:24;;;;;;;17.10;15.38;;;;;;;20.69;69.92;101174.31;4990096;28;20113;-76
2022/08/30 08:19:49;;;;;;;14.60;12.70;;;;;;;20.72;69.00;101164.34;4991152;28;20488;-76
2022/08/30 08:22:15;;;;;;;12.98;11.88;;;;;;;20.83;68.94;101174.66;4988894;28;20516;-76
2022/08/30 08:24:40;;;;;;;16.33;14.63;;;;;;;20.87;66.91;101175.41;4988144;28;20477;-76
2022/08/30 08:27:05;;;;;;;14.55;13.05;;;;;;;20.93;68.16;101173.38;4990684;28;20135;-76
2022/08/30 08:29:31;;;;;;;14.48;12.57;;;;;;;21.24;67.03;101170.31;4992266;28;20527;-76
2022/08/30 08:31:57;;;;;;;14.02;11.63;;;;;;;21.41;66.86;101175.06;4992175;28;20033;-76
2022/08/30 08:34:22;;;;;;;16.92;13.52;;;;;;;21.51;65.89;101171.97;4988515;28;20539;-76
2022/08/30 08:36:49;;;;;;;15.10;11.40;;;;;;;21.47;65.49;101175.75;4992425;28;20034;-76
2022/08/30 08:39:15;;;;;;;17.30;12.23;;;;;;;21.34;66.57;101170.84;4991959;28;20471;-76
2022/08/30 08:41:53;;;;;;;14.63;13.10;;;;;;;21.19;65.48;101179.50;4988650;28;20125;-76
2022/08/30 08:44:36;;;;;;;14.95;13.48;;;;;;;21.11;66.61;101173.56;4986628;28;20117;-76
2022/08/30 08:47:16;;;;;;;13.30;12.00;;;;;;;21.09;66.01;101180.81;4993613;28;20070;-76
2022/08/30 08:49:45;;;;;;;14.52;11.35;;;;;;;21.07;66.09;101166.59;4992572;28;20204;-76
2022/08/30 08:55:13;;;;;;;22.10;12.40;;;;;;;21.33;65.13;101171.78;4992261;28;20143;-76
2022/08/30 08:57:39;;;;;;;16.20;14.60;;;;;;;21.45;65.13;101173.13;4992256;28;20034;-76
2022/08/30 09:00:08;;;;;;;14.88;13.20;;;;;;;21.40;65.77;101167.06;4992268;28;20045;-76
2022/08/30 09:02:40;;;;;;;15.13;13.45;;;;;;;21.55;65.81;101165.56;4991847;28;20038;-75
2022/08/30 09:05:10;;;;;;;16.67;14.82;;;;;;;21.71;65.94;101163.97;4992184;28;20485;-76
2022/08/30 09:07:40;;;;;;;14.65;13.35;;;;;;;21.95;65.02;101167.41;4992266;28;20042;-76
2022/08/30 09:10:06;;;;;;;15.35;13.88;;;;;;;22.07;63.46;101172.25;4992049;28;20057;-76
2022/08/30 09:12:31;;;;;;;14.80;13.18;;;;;;;22.23;61.71;101168.94;4990096;28;20489;-77
2022/08/30 09:15:16;;;;;;;13.70;12.40;;;;;;;22.35;60.77;101164.78;4986964;28;20045;-76
2022/08/30 09:17:57;;;;;;;12.38;11.20;;;;;;;22.61;59.98;101169.88;4990764;28;20030;-76
2022/08/30 09:20:45;;;;;;;12.52;11.55;;;;;;;22.81;60.40;101171.63;4988259;28;20104;-76
2022/08/30 09:23:16;;;;;;;18.17;16.52;;;;;;;22.40;58.96;101168.16;4990870;28;20038;-76
2022/08/30 09:25:55;;;;;;;15.50;14.10;;;;;;;22.90;59.46;101171.22;4988637;28;20042;-77
2022/08/30 09:28:24;;;;;;;16.55;15.07;;;;;;;23.27;57.95;101164.06;4975063;28;20037;-76
2022/08/30 09:31:16;;;;;;;14.70;13.52;;;;;;;23.84;57.25;101170.22;4988232;28;20061;-75
2022/08/30 09:34:12;;;;;;;14.43;13.32;;;;;;;24.19;56.07;101162.09;4987163;28;20046;-76
2022/08/30 09:36:44;;;;;;;13.00;11.85;;;;;;;24.66;55.98;101155.13;4989134;28;20046;-77
2022/08/30 09:39:31;;;;;;;13.95;12.68;;;;;;;24.92;53.43;101146.44;4991791;28;20100;-77
2022/08/30 09:42:17;;;;;;;13.50;12.38;;;;;;;24.62;52.59;101154.41;4989330;28;20117;-76
2022/08/30 09:44:43;;;;;;;19.15;17.17;;;;;;;24.73;55.01;101153.81;4990078;28;20045;-76
2022/08/30 09:47:19;;;;;;;19.92;17.77;;;;;;;25.16;53.74;101148.75;4991749;28;20030;-76
2022/08/30 09:49:44;;;;;;;14.57;13.07;;;;;;;25.21;53.50;101148.47;4988632;28;20031;-76
2022/08/30 09:52:37;;;;;;;13.40;12.18;;;;;;;25.23;53.63;101149.25;4991408;28;20085;-76
2022/08/30 09:55:25;;;;;;;20.40;18.95;;;;;;;24.75;53.53;101154.59;4989620;28;20049;-76
2022/08/30 09:58:01;;;;;;;12.75;11.65;;;;;;;23.87;55.09;101152.13;4988643;28;20034;-76
2022/08/30 10:00:31;;;;;;;11.98;11.05;;;;;;;23.54;57.09;101151.03;4989556;28;20519;-78
2022/08/30 10:03:14;;;;;;;13.13;12.10;;;;;;;23.40;56.80;101158.97;4991132;28;20065;-76
2022/08/30 10:05:55;;;;;;;11.18;10.38;;;;;;;23.07;58.25;101154.28;4988594;28;20412;-77
2022/08/30 10:08:33;;;;;;;11.95;10.95;;;;;;;23.18;59.10;101151.91;4989703;28;20034;-77
2022/08/30 10:11:18;;;;;;;14.32;13.32;;;;;;;23.04;57.78;101149.03;4988122;28;20062;-76
2022/08/30 10:14:04;;;;;;;12.63;11.43;;;;;;;22.68;59.49;101152.50;4988307;28;20408;-77
2022/08/30 10:17:08;;;;;;;12.85;11.93;;;;;;;22.64;58.71;101144.66;4988145;28;20184;-76
2022/08/30 10:20:04;;;;;;;15.05;14.05;;;;;;;22.48;61.04;101160.63;4981588;28;20045;-77
2022/08/30 10:22:36;;;;;;;14.07;12.88;;;;;;;22.24;62.74;101152.75;4985439;28;20054;-77
2022/08/30 10:25:09;;;;;;;15.70;14.30;;;;;;;22.38;62.37;101148.56;4987301;28;20042;-76
2022/08/30 10:28:02;;;;;;;16.08;14.88;;;;;;;22.58;62.27;101145.78;4990841;28;20085;-77
2022/08/30 10:30:30;;;;;;;13.43;12.02;;;;;;;22.71;61.28;101146.97;4988946;28;20408;-77
2022/08/30 10:33:10;;;;;;;15.35;14.10;;;;;;;23.03;59.89;101144.63;4987086;28;20034;-77
2022/08/30 10:35:41;;;;;;;14.43;13.25;;;;;;;23.36;58.73;101141.19;4991338;28;20040;-77
2022/08/30 10:38:30;;;;;;;15.02;13.85;;;;;;;23.61;57.28;101138.16;4987911;28;20041;-77
2022/08/30 10:41:36;;;;;;;14.00;12.75;;;;;;;23.49;55.43;101136.06;4987696;28;20425;-77
2022/08/30 10:44:29;;;;;;;14.30;12.77;;;;;;;23.39;54.37;101143.72;4988672;28;20042;-76
2022/08/30 10:47:31;;;;;;;11.60;10.60;;;;;;;23.10;54.69;101142.47;4987400;28;20050;-77
2022/08/30 10:50:08;;;;;;;16.05;14.20;;;;;;;23.38;56.62;101126.69;4977940;28;20089;-76
2022/08/30 10:52:39;;;;;;;13.27;12.15;;;;;;;23.67;56.63;101132.44;4988351;28;20030;-77
2022/08/30 10:55:17;;;;;;;13.00;11.90;;;;;;;23.58;55.96;101133.78;4993592;28;20069;-77
2022/08/30 10:57:44;;;;;;;13.23;12.20;;;;;;;23.83;56.09;101135.25;4994112;28;20034;-76
2022/08/30 11:00:11;;;;;;;14.10;12.82;;;;;;;24.08;55.09;101137.53;4994436;28;20085;-77
2022/08/30 11:03:01;;;;;;;12.77;11.73;;;;;;;24.39;53.05;101130.47;4993601;28;20034;-76
2022/08/30 11:05:42;;;;;;;18.88;17.60;;;;;;;24.26;52.91;101130.25;4990103;28;20022;-77
2022/08/30 11:08:26;;;;;;;17.00;15.77;;;;;;;24.19;52.20;101124.34;4994550;28;20038;-77
2022/08/30 11:11:15;;;;;;;13.80;12.70;;;;;;;23.87;53.04;101131.44;4994092;28;20081;-76
2022/08/30 11:13:42;;;;;;;12.73;11.73;;;;;;;23.85;52.07;101125.25;4993211;28;20506;-76
2022/08/30 11:16:09;;;;;;;18.40;17.00;;;;;;;24.19;51.28;101127.03;4992992;28;20030;-76
2022/08/30 11:18:45;;;;;;;13.82;12.80;;;;;;;24.23;50.82;101127.75;4991010;28;20053;-76